sensor_id;sensor_type;location;lat;lon;timestamp;temperature;humidity
21772;DHT22;11047;47.904;8.110;2023-07-24T00:01:59;15.10;99.90
21772;DHT22;11047;47.904;8.110;2023-07-24T00:04:25;14.90;99.90
21772;DHT22;11047;47.904;8.110;2023-07-24T00:06:52;14.80;99.90
21772;DHT22;11047;47.904;8.110;2023-07-24T00:09:21;14.90;99.90
21772;DHT22;11047;47.904;8.110;2023-07-24T00:11:48;15.00;99.90
21772;DHT22;11047;47.904;8.110;2023-07-24T00:14:15;14.90;99.90
21772;DHT22;11047;47.904;8.110;2023-07-24T00:16:42;14.80;99.90
21772;DHT22;11047;47.904;8.110;2023-07-24T00:19:09;14.80;99.90
21772;DHT22;11047;47.904;8.110;2023-07-24T00:21:36;14.90;99.90
21772;DHT22;11047;47.904;8.110;2023-07-24T00:24:03;14.90;99.90
21772;DHT22;11047;47.904;8.110;2023-07-24T00:26:31;15.00;99.90
21772;DHT22;11047;47.904;8.110;2023-07-24T00:28:59;15.00;99.90
21772;DHT22;11047;47.904;8.110;2023-07-24T00:31:26;15.00;99.90
21772;DHT22;11047;47.904;8.110;2023-07-24T00:33:53;14.90;99.90
21772;DHT22;11047;47.904;8.110;2023-07-24T00:36:20;15.00;99.90
21772;DHT22;11047;47.904;8.110;2023-07-24T00:38:47;15.00;99.90
21772;DHT22;11047;47.904;8.110;2023-07-24T00:41:14;14.90;99.90
21772;DHT22;11047;47.904;8.110;2023-07-24T00:43:42;15.00;99.90
21772;DHT22;11047;47.904;8.110;2023-07-24T00:46:10;14.80;99.90
21772;DHT22;11047;47.904;8.110;2023-07-24T00:48:37;14.80;99.90
21772;DHT22;11047;47.904;8.110;2023-07-24T00:51:05;14.80;99.90
21772;DHT22;11047;47.904;8.110;2023-07-24T00:53:32;14.70;99.90
21772;DHT22;11047;47.904;8.110;2023-07-24T00:55:59;14.60;99.90
21772;DHT22;11047;47.904;8.110;2023-07-24T00:58:26;14.60;99.90
21772;DHT22;11047;47.904;8.110;2023-07-24T01:00:54;14.40;99.90
21772;DHT22;11047;47.904;8.110;2023-07-24T01:03:23;14.40;99.90
21772;DHT22;11047;47.904;8.110;2023-07-24T01:05:58;14.30;99.90
21772;DHT22;11047;47.904;8.110;2023-07-24T01:08:27;14.30;99.90
21772;DHT22;11047;47.904;8.110;2023-07-24T01:10:54;14.30;99.90
21772;DHT22;11047;47.904;8.110;2023-07-24T01:13:25;14.20;99.90
21772;DHT22;11047;47.904;8.110;2023-07-24T01:16:03;14.20;99.90
21772;DHT22;11047;47.904;8.110;2023-07-24T01:18:31;14.10;99.90
21772;DHT22;11047;47.904;8.110;2023-07-24T01:21:05;14.10;99.90
21772;DHT22;11047;47.904;8.110;2023-07-24T01:23:45;14.20;99.90
21772;DHT22;11047;47.904;8.110;2023-07-24T01:26:15;14.30;99.90
21772;DHT22;11047;47.904;8.110;2023-07-24T01:28:42;14.30;99.90
21772;DHT22;11047;47.904;8.110;2023-07-24T01:31:09;14.20;99.90
21772;DHT22;11047;47.904;8.110;2023-07-24T01:33:36;14.20;99.90
21772;DHT22;11047;47.904;8.110;2023-07-24T01:36:03;14.20;99.90
21772;DHT22;11047;47.904;8.110;2023-07-24T01:38:32;14.00;99.90
21772;DHT22;11047;47.904;8.110;2023-07-24T01:41:01;13.90;99.90
21772;DHT22;11047;47.904;8.110;2023-07-24T01:43:30;13.80;99.90
21772;DHT22;11047;47.904;8.110;2023-07-24T01:45:57;13.70;99.90
21772;DHT22;11047;47.904;8.110;2023-07-24T01:48:24;13.70;99.90
21772;DHT22;11047;47.904;8.110;2023-07-24T01:50:51;13.80;99.90
21772;DHT22;11047;47.904;8.110;2023-07-24T01:53:18;13.90;99.90
21772;DHT22;11047;47.904;8.110;2023-07-24T01:55:45;13.90;99.90
21772;DHT22;11047;47.904;8.110;2023-07-24T01:58:12;13.70;99.90
21772;DHT22;11047;47.904;8.110;2023-07-24T02:00:40;13.70;99.90
21772;DHT22;11047;47.904;8.110;2023-07-24T02:03:07;13.70;99.90
21772;DHT22;11047;47.904;8.110;2023-07-24T02:05:34;13.60;99.90
21772;DHT22;11047;47.904;8.110;2023-07-24T02:08:01;13.60;99.90
21772;DHT22;11047;47.904;8.110;2023-07-24T02:10:28;13.60;99.90
21772;DHT22;11047;47.904;8.110;2023-07-24T02:12:54;13.60;99.90
21772;DHT22;11047;47.904;8.110;2023-07-24T02:15:21;13.60;99.90
21772;DHT22;11047;47.904;8.110;2023-07-24T02:17:50;13.50;99.90
21772;DHT22;11047;47.904;8.110;2023-07-24T02:20:17;13.40;99.90
21772;DHT22;11047;47.904;8.110;2023-07-24T02:22:44;13.50;99.90
21772;DHT22;11047;47.904;8.110;2023-07-24T02:25:10;13.40;99.90
21772;DHT22;11047;47.904;8.110;2023-07-24T02:27:37;13.40;99.90
21772;DHT22;11047;47.904;8.110;2023-07-24T02:30:05;13.50;99.90
21772;DHT22;11047;47.904;8.110;2023-07-24T02:32:32;13.40;99.90
21772;DHT22;11047;47.904;8.110;2023-07-24T02:35:00;13.40;99.90
21772;DHT22;11047;47.904;8.110;2023-07-24T02:37:27;13.40;99.90
21772;DHT22;11047;47.904;8.110;2023-07-24T02:39:54;13.40;99.90
21772;DHT22;11047;47.904;8.110;2023-07-24T02:42:21;13.40;99.90
21772;DHT22;11047;47.904;8.110;2023-07-24T02:44:48;13.30;99.90
21772;DHT22;11047;47.904;8.110;2023-07-24T02:47:15;13.30;99.90
21772;DHT22;11047;47.904;8.110;2023-07-24T02:49:42;13.40;99.90
21772;DHT22;11047;47.904;8.110;2023-07-24T02:52:10;13.30;99.90
21772;DHT22;11047;47.904;8.110;2023-07-24T02:54:37;13.20;99.90
21772;DHT22;11047;47.904;8.110;2023-07-24T02:57:05;13.30;99.90
21772;DHT22;11047;47.904;8.110;2023-07-24T02:59:31;13.20;99.90
21772;DHT22;11047;47.904;8.110;2023-07-24T03:02:00;13.20;99.90
21772;DHT22;11047;47.904;8.110;2023-07-24T03:04:27;13.20;99.90
21772;DHT22;11047;47.904;8.110;2023-07-24T03:06:53;13.30;99.90
21772;DHT22;11047;47.904;8.110;2023-07-24T03:09:22;13.30;99.90
21772;DHT22;11047;47.904;8.110;2023-07-24T03:11:49;13.30;99.90
21772;DHT22;11047;47.904;8.110;2023-07-24T03:14:16;13.30;99.90
21772;DHT22;11047;47.904;8.110;2023-07-24T03:16:42;13.30;99.90
21772;DHT22;11047;47.904;8.110;2023-07-24T03:19:09;13.30;99.90
21772;DHT22;11047;47.904;8.110;2023-07-24T03:21:36;13.30;99.90
21772;DHT22;11047;47.904;8.110;2023-07-24T03:24:04;13.30;99.90
21772;DHT22;11047;47.904;8.110;2023-07-24T03:26:32;13.40;99.90
21772;DHT22;11047;47.904;8.110;2023-07-24T03:29:00;13.50;99.90
21772;DHT22;11047;47.904;8.110;2023-07-24T03:31:27;13.50;99.90
21772;DHT22;11047;47.904;8.110;2023-07-24T03:33:54;13.60;99.90
21772;DHT22;11047;47.904;8.110;2023-07-24T03:36:21;13.70;99.90
21772;DHT22;11047;47.904;8.110;2023-07-24T03:38:48;13.70;99.90
21772;DHT22;11047;47.904;8.110;2023-07-24T03:41:15;13.70;99.90
21772;DHT22;11047;47.904;8.110;2023-07-24T03:43:43;13.70;99.90
21772;DHT22;11047;47.904;8.110;2023-07-24T03:46:10;13.80;99.90
21772;DHT22;11047;47.904;8.110;2023-07-24T03:48:36;13.90;99.90
21772;DHT22;11047;47.904;8.110;2023-07-24T03:51:03;13.90;99.90
21772;DHT22;11047;47.904;8.110;2023-07-24T03:53:30;14.00;99.90
21772;DHT22;11047;47.904;8.110;2023-07-24T03:55:57;14.00;99.90
21772;DHT22;11047;47.904;8.110;2023-07-24T03:58:24;13.90;99.90
21772;DHT22;11047;47.904;8.110;2023-07-24T04:00:52;14.00;99.90
21772;DHT22;11047;47.904;8.110;2023-07-24T04:03:19;14.10;99.90
21772;DHT22;11047;47.904;8.110;2023-07-24T04:05:46;14.10;99.90
21772;DHT22;11047;47.904;8.110;2023-07-24T04:08:13;14.10;99.90
21772;DHT22;11047;47.904;8.110;2023-07-24T04:10:40;14.10;99.90
21772;DHT22;11047;47.904;8.110;2023-07-24T04:13:07;14.10;99.90
21772;DHT22;11047;47.904;8.110;2023-07-24T04:15:34;14.30;99.90
21772;DHT22;11047;47.904;8.110;2023-07-24T04:18:02;14.70;99.90
21772;DHT22;11047;47.904;8.110;2023-07-24T04:20:29;15.10;99.90
21772;DHT22;11047;47.904;8.110;2023-07-24T04:22:56;15.70;99.90
21772;DHT22;11047;47.904;8.110;2023-07-24T04:25:23;16.00;99.90
21772;DHT22;11047;47.904;8.110;2023-07-24T04:27:50;16.30;99.90
21772;DHT22;11047;47.904;8.110;2023-07-24T04:30:17;16.50;99.90
21772;DHT22;11047;47.904;8.110;2023-07-24T04:32:43;16.90;99.90
21772;DHT22;11047;47.904;8.110;2023-07-24T04:35:12;17.20;99.90
21772;DHT22;11047;47.904;8.110;2023-07-24T04:37:39;17.30;99.90
21772;DHT22;11047;47.904;8.110;2023-07-24T04:40:07;17.60;99.90
21772;DHT22;11047;47.904;8.110;2023-07-24T04:42:34;17.60;99.90
21772;DHT22;11047;47.904;8.110;2023-07-24T04:45:02;17.70;99.90
21772;DHT22;11047;47.904;8.110;2023-07-24T04:47:28;17.90;99.90
21772;DHT22;11047;47.904;8.110;2023-07-24T04:49:55;17.90;99.90
21772;DHT22;11047;47.904;8.110;2023-07-24T04:52:24;18.10;99.90
21772;DHT22;11047;47.904;8.110;2023-07-24T04:54:50;18.10;99.90
21772;DHT22;11047;47.904;8.110;2023-07-24T04:57:17;18.10;99.90
21772;DHT22;11047;47.904;8.110;2023-07-24T04:59:44;18.10;99.90
21772;DHT22;11047;47.904;8.110;2023-07-24T05:02:12;18.10;99.90
21772;DHT22;11047;47.904;8.110;2023-07-24T05:04:38;18.10;99.90
21772;DHT22;11047;47.904;8.110;2023-07-24T05:07:07;18.10;99.90
21772;DHT22;11047;47.904;8.110;2023-07-24T05:09:35;17.90;99.90
21772;DHT22;11047;47.904;8.110;2023-07-24T05:12:02;17.90;99.90
21772;DHT22;11047;47.904;8.110;2023-07-24T05:14:29;17.80;99.90
21772;DHT22;11047;47.904;8.110;2023-07-24T05:16:56;17.60;99.90
21772;DHT22;11047;47.904;8.110;2023-07-24T05:19:23;17.40;99.90
21772;DHT22;11047;47.904;8.110;2023-07-24T05:21:50;17.20;99.90
21772;DHT22;11047;47.904;8.110;2023-07-24T05:24:16;17.00;99.90
21772;DHT22;11047;47.904;8.110;2023-07-24T05:26:45;17.00;99.90
21772;DHT22;11047;47.904;8.110;2023-07-24T05:29:12;16.80;99.90
21772;DHT22;11047;47.904;8.110;2023-07-24T05:31:38;16.60;99.90
21772;DHT22;11047;47.904;8.110;2023-07-24T05:34:05;16.50;99.90
21772;DHT22;11047;47.904;8.110;2023-07-24T05:36:32;16.40;99.90
21772;DHT22;11047;47.904;8.110;2023-07-24T05:38:59;16.30;99.90
21772;DHT22;11047;47.904;8.110;2023-07-24T05:41:26;16.40;99.90
21772;DHT22;11047;47.904;8.110;2023-07-24T05:43:54;16.30;99.90
21772;DHT22;11047;47.904;8.110;2023-07-24T05:46:22;16.30;99.90
21772;DHT22;11047;47.904;8.110;2023-07-24T05:48:49;16.30;99.90
21772;DHT22;11047;47.904;8.110;2023-07-24T05:51:16;16.20;99.90
21772;DHT22;11047;47.904;8.110;2023-07-24T05:53:42;16.20;99.90
21772;DHT22;11047;47.904;8.110;2023-07-24T05:56:09;16.30;99.90
21772;DHT22;11047;47.904;8.110;2023-07-24T05:58:36;16.10;99.90
21772;DHT22;11047;47.904;8.110;2023-07-24T06:01:04;16.10;99.90
21772;DHT22;11047;47.904;8.110;2023-07-24T06:03:33;16.10;99.90
21772;DHT22;11047;47.904;8.110;2023-07-24T06:06:00;16.20;99.90
21772;DHT22;11047;47.904;8.110;2023-07-24T06:08:27;16.20;99.90
21772;DHT22;11047;47.904;8.110;2023-07-24T06:10:54;16.30;99.90
21772;DHT22;11047;47.904;8.110;2023-07-24T06:13:21;16.30;99.90
21772;DHT22;11047;47.904;8.110;2023-07-24T06:15:48;16.30;99.90
21772;DHT22;11047;47.904;8.110;2023-07-24T06:18:16;16.40;99.90
21772;DHT22;11047;47.904;8.110;2023-07-24T06:20:43;16.50;99.90
21772;DHT22;11047;47.904;8.110;2023-07-24T06:23:10;16.60;99.90
21772;DHT22;11047;47.904;8.110;2023-07-24T06:25:37;16.70;99.90
21772;DHT22;11047;47.904;8.110;2023-07-24T06:28:04;16.70;99.90
21772;DHT22;11047;47.904;8.110;2023-07-24T06:30:31;16.80;99.90
21772;DHT22;11047;47.904;8.110;2023-07-24T06:32:58;17.00;99.90
21772;DHT22;11047;47.904;8.110;2023-07-24T06:35:26;17.10;99.90
21772;DHT22;11047;47.904;8.110;2023-07-24T06:37:53;17.20;99.90
21772;DHT22;11047;47.904;8.110;2023-07-24T06:40:20;17.20;99.90
21772;DHT22;11047;47.904;8.110;2023-07-24T06:42:46;17.30;99.90
21772;DHT22;11047;47.904;8.110;2023-07-24T06:45:13;17.20;99.90
21772;DHT22;11047;47.904;8.110;2023-07-24T06:47:40;17.10;99.90
21772;DHT22;11047;47.904;8.110;2023-07-24T06:50:07;17.10;99.90
21772;DHT22;11047;47.904;8.110;2023-07-24T06:52:36;17.00;99.90
21772;DHT22;11047;47.904;8.110;2023-07-24T06:55:03;17.00;99.90
21772;DHT22;11047;47.904;8.110;2023-07-24T06:57:30;16.90;99.90
21772;DHT22;11047;47.904;8.110;2023-07-24T06:59:57;17.00;99.90
21772;DHT22;11047;47.904;8.110;2023-07-24T07:02:24;17.10;99.90
21772;DHT22;11047;47.904;8.110;2023-07-24T07:04:51;17.20;99.90
21772;DHT22;11047;47.904;8.110;2023-07-24T07:07:18;17.30;99.90
21772;DHT22;11047;47.904;8.110;2023-07-24T07:09:46;17.30;99.90
21772;DHT22;11047;47.904;8.110;2023-07-24T07:12:13;17.40;99.90
21772;DHT22;11047;47.904;8.110;2023-07-24T07:14:40;17.50;99.90
21772;DHT22;11047;47.904;8.110;2023-07-24T07:17:07;17.60;99.90
21772;DHT22;11047;47.904;8.110;2023-07-24T07:19:34;17.60;99.90
21772;DHT22;11047;47.904;8.110;2023-07-24T07:22:01;17.70;99.90
21772;DHT22;11047;47.904;8.110;2023-07-24T07:24:28;17.70;99.90
21772;DHT22;11047;47.904;8.110;2023-07-24T07:26:56;17.80;99.90
21772;DHT22;11047;47.904;8.110;2023-07-24T07:29:23;18.10;99.90
21772;DHT22;11047;47.904;8.110;2023-07-24T07:31:50;18.10;99.90
21772;DHT22;11047;47.904;8.110;2023-07-24T07:34:17;18.10;99.90
21772;DHT22;11047;47.904;8.110;2023-07-24T07:36:44;17.90;99.90
21772;DHT22;11047;47.904;8.110;2023-07-24T07:39:11;17.90;99.90
21772;DHT22;11047;47.904;8.110;2023-07-24T07:41:38;17.80;99.90
21772;DHT22;11047;47.904;8.110;2023-07-24T07:44:06;17.80;99.90
21772;DHT22;11047;47.904;8.110;2023-07-24T07:46:33;17.80;99.90
21772;DHT22;11047;47.904;8.110;2023-07-24T07:49:00;17.80;99.90
21772;DHT22;11047;47.904;8.110;2023-07-24T07:51:27;17.60;99.90
21772;DHT22;11047;47.904;8.110;2023-07-24T07:53:54;17.50;99.90
21772;DHT22;11047;47.904;8.110;2023-07-24T07:56:20;17.40;99.90
21772;DHT22;11047;47.904;8.110;2023-07-24T07:58:47;17.40;99.90
21772;DHT22;11047;47.904;8.110;2023-07-24T08:01:16;17.40;99.90
21772;DHT22;11047;47.904;8.110;2023-07-24T08:03:42;17.30;99.90
21772;DHT22;11047;47.904;8.110;2023-07-24T08:09:12;17.20;99.90
21772;DHT22;11047;47.904;8.110;2023-07-24T08:11:39;17.20;99.90
21772;DHT22;11047;47.904;8.110;2023-07-24T08:14:06;17.20;99.90
21772;DHT22;11047;47.904;8.110;2023-07-24T08:16:34;17.20;99.90
21772;DHT22;11047;47.904;8.110;2023-07-24T08:19:01;17.20;99.90
21772;DHT22;11047;47.904;8.110;2023-07-24T08:21:28;17.20;99.90
21772;DHT22;11047;47.904;8.110;2023-07-24T08:23:55;17.20;99.90
21772;DHT22;11047;47.904;8.110;2023-07-24T08:26:22;17.20;99.90
21772;DHT22;11047;47.904;8.110;2023-07-24T08:28:51;17.20;99.90
21772;DHT22;11047;47.904;8.110;2023-07-24T08:31:18;17.20;99.90
21772;DHT22;11047;47.904;8.110;2023-07-24T08:33:46;17.20;99.90
21772;DHT22;11047;47.904;8.110;2023-07-24T08:36:13;17.30;99.90
21772;DHT22;11047;47.904;8.110;2023-07-24T08:38:40;17.40;99.90
21772;DHT22;11047;47.904;8.110;2023-07-24T08:41:10;17.60;99.90
21772;DHT22;11047;47.904;8.110;2023-07-24T08:43:38;17.70;99.90
21772;DHT22;11047;47.904;8.110;2023-07-24T08:46:06;17.70;99.90
21772;DHT22;11047;47.904;8.110;2023-07-24T08:48:35;17.80;99.90
21772;DHT22;11047;47.904;8.110;2023-07-24T08:51:04;17.90;99.90
21772;DHT22;11047;47.904;8.110;2023-07-24T08:53:33;18.00;99.90
21772;DHT22;11047;47.904;8.110;2023-07-24T08:56:02;18.10;99.90
21772;DHT22;11047;47.904;8.110;2023-07-24T08:58:29;18.30;99.90
21772;DHT22;11047;47.904;8.110;2023-07-24T09:00:57;18.40;99.90
21772;DHT22;11047;47.904;8.110;2023-07-24T09:03:24;18.40;99.90
21772;DHT22;11047;47.904;8.110;2023-07-24T09:05:51;18.50;99.90
21772;DHT22;11047;47.904;8.110;2023-07-24T09:08:29;18.60;99.90
21772;DHT22;11047;47.904;8.110;2023-07-24T09:10:57;18.70;99.90
21772;DHT22;11047;47.904;8.110;2023-07-24T09:13:24;18.80;99.90
21772;DHT22;11047;47.904;8.110;2023-07-24T09:15:51;19.00;99.90
21772;DHT22;11047;47.904;8.110;2023-07-24T09:18:18;19.10;99.90
21772;DHT22;11047;47.904;8.110;2023-07-24T09:20:45;19.20;99.90
21772;DHT22;11047;47.904;8.110;2023-07-24T09:23:13;19.20;99.90
21772;DHT22;11047;47.904;8.110;2023-07-24T09:25:43;19.20;99.90
21772;DHT22;11047;47.904;8.110;2023-07-24T09:28:11;18.90;99.90
21772;DHT22;11047;47.904;8.110;2023-07-24T09:30:39;18.70;99.90
21772;DHT22;11047;47.904;8.110;2023-07-24T09:33:06;18.60;99.90
21772;DHT22;11047;47.904;8.110;2023-07-24T09:35:33;18.40;99.90
21772;DHT22;11047;47.904;8.110;2023-07-24T09:38:05;17.10;99.90
21772;DHT22;11047;47.904;8.110;2023-07-24T09:40:43;16.30;99.90
21772;DHT22;11047;47.904;8.110;2023-07-24T09:43:17;15.90;99.90
21772;DHT22;11047;47.904;8.110;2023-07-24T09:45:44;15.70;99.90
21772;DHT22;11047;47.904;8.110;2023-07-24T09:48:13;15.70;99.90
21772;DHT22;11047;47.904;8.110;2023-07-24T09:50:41;15.70;99.90
21772;DHT22;11047;47.904;8.110;2023-07-24T09:53:12;15.80;99.90
21772;DHT22;11047;47.904;8.110;2023-07-24T09:55:48;15.90;99.90
21772;DHT22;11047;47.904;8.110;2023-07-24T09:58:16;16.00;99.90
21772;DHT22;11047;47.904;8.110;2023-07-24T10:00:45;16.00;99.90
21772;DHT22;11047;47.904;8.110;2023-07-24T10:03:13;16.00;99.90
21772;DHT22;11047;47.904;8.110;2023-07-24T10:05:41;15.90;99.90
21772;DHT22;11047;47.904;8.110;2023-07-24T10:08:09;15.80;99.90
21772;DHT22;11047;47.904;8.110;2023-07-24T10:10:36;15.80;99.90
21772;DHT22;11047;47.904;8.110;2023-07-24T10:13:06;15.90;99.90
21772;DHT22;11047;47.904;8.110;2023-07-24T10:15:36;15.80;99.90
21772;DHT22;11047;47.904;8.110;2023-07-24T10:18:05;15.70;99.90
21772;DHT22;11047;47.904;8.110;2023-07-24T10:27:23;15.50;99.90
21772;DHT22;11047;47.904;8.110;2023-07-24T10:29:59;15.50;99.90
21772;DHT22;11047;47.904;8.110;2023-07-24T10:32:26;15.50;99.90
21772;DHT22;11047;47.904;8.110;2023-07-24T10:34:58;15.50;99.90
21772;DHT22;11047;47.904;8.110;2023-07-24T10:37:32;15.70;99.90
21772;DHT22;11047;47.904;8.110;2023-07-24T10:40:00;15.80;99.90
21772;DHT22;11047;47.904;8.110;2023-07-24T10:42:28;16.00;99.90
21772;DHT22;11047;47.904;8.110;2023-07-24T10:45:04;15.90;99.90
21772;DHT22;11047;47.904;8.110;2023-07-24T10:47:31;15.90;99.90
21772;DHT22;11047;47.904;8.110;2023-07-24T10:49:58;16.00;99.90
21772;DHT22;11047;47.904;8.110;2023-07-24T10:52:33;16.30;99.90
21772;DHT22;11047;47.904;8.110;2023-07-24T10:55:00;16.50;99.90
21772;DHT22;11047;47.904;8.110;2023-07-24T10:57:28;16.80;99.90
21772;DHT22;11047;47.904;8.110;2023-07-24T10:59:55;17.00;99.90
21772;DHT22;11047;47.904;8.110;2023-07-24T11:02:24;17.20;99.90
21772;DHT22;11047;47.904;8.110;2023-07-24T11:04:51;17.30;99.90
21772;DHT22;11047;47.904;8.110;2023-07-24T11:07:18;17.40;99.90
21772;DHT22;11047;47.904;8.110;2023-07-24T11:09:44;17.70;99.90
21772;DHT22;11047;47.904;8.110;2023-07-24T11:12:13;17.90;99.90
21772;DHT22;11047;47.904;8.110;2023-07-24T11:14:50;17.90;99.90
21772;DHT22;11047;47.904;8.110;2023-07-24T11:17:17;18.00;99.90
21772;DHT22;11047;47.904;8.110;2023-07-24T11:19:45;18.10;99.90
21772;DHT22;11047;47.904;8.110;2023-07-24T11:22:13;18.20;99.90
21772;DHT22;11047;47.904;8.110;2023-07-24T11:24:44;18.30;99.90
21772;DHT22;11047;47.904;8.110;2023-07-24T11:27:13;18.40;99.90
21772;DHT22;11047;47.904;8.110;2023-07-24T11:29:41;18.40;99.90
21772;DHT22;11047;47.904;8.110;2023-07-24T11:32:08;18.60;99.90
21772;DHT22;11047;47.904;8.110;2023-07-24T11:34:35;18.60;99.90
21772;DHT22;11047;47.904;8.110;2023-07-24T11:37:05;18.90;99.90
21772;DHT22;11047;47.904;8.110;2023-07-24T11:39:32;19.30;99.90
21772;DHT22;11047;47.904;8.110;2023-07-24T11:42:00;19.70;99.90
21772;DHT22;11047;47.904;8.110;2023-07-24T11:44:28;19.80;99.90
21772;DHT22;11047;47.904;8.110;2023-07-24T11:47:00;19.60;99.90
21772;DHT22;11047;47.904;8.110;2023-07-24T11:49:28;19.60;99.90
21772;DHT22;11047;47.904;8.110;2023-07-24T11:52:00;19.30;99.90
21772;DHT22;11047;47.904;8.110;2023-07-24T11:54:29;19.20;99.90
21772;DHT22;11047;47.904;8.110;2023-07-24T11:56:56;19.10;99.90
21772;DHT22;11047;47.904;8.110;2023-07-24T11:59:24;19.00;99.90
21772;DHT22;11047;47.904;8.110;2023-07-24T12:01:51;18.90;99.90
21772;DHT22;11047;47.904;8.110;2023-07-24T12:04:18;19.00;99.90
21772;DHT22;11047;47.904;8.110;2023-07-24T12:06:46;19.40;99.90
21772;DHT22;11047;47.904;8.110;2023-07-24T12:09:13;19.70;99.90
21772;DHT22;11047;47.904;8.110;2023-07-24T12:11:42;19.80;99.90
21772;DHT22;11047;47.904;8.110;2023-07-24T12:14:09;20.00;99.90
21772;DHT22;11047;47.904;8.110;2023-07-24T12:16:36;20.00;99.90
21772;DHT22;11047;47.904;8.110;2023-07-24T12:19:03;19.80;99.90
21772;DHT22;11047;47.904;8.110;2023-07-24T12:21:30;19.90;99.90
21772;DHT22;11047;47.904;8.110;2023-07-24T12:23:57;19.80;99.90
21772;DHT22;11047;47.904;8.110;2023-07-24T12:26:24;19.60;99.90
21772;DHT22;11047;47.904;8.110;2023-07-24T12:28:54;19.60;99.90
21772;DHT22;11047;47.904;8.110;2023-07-24T12:31:21;19.40;99.90
21772;DHT22;11047;47.904;8.110;2023-07-24T12:33:59;19.20;99.90
21772;DHT22;11047;47.904;8.110;2023-07-24T12:36:27;19.10;99.90
21772;DHT22;11047;47.904;8.110;2023-07-24T12:38:54;18.90;99.90
21772;DHT22;11047;47.904;8.110;2023-07-24T12:41:21;18.70;99.90
21772;DHT22;11047;47.904;8.110;2023-07-24T12:43:48;18.50;99.90
21772;DHT22;11047;47.904;8.110;2023-07-24T12:46:16;18.30;99.90
21772;DHT22;11047;47.904;8.110;2023-07-24T12:48:43;18.00;99.90
21772;DHT22;11047;47.904;8.110;2023-07-24T12:51:10;17.80;99.90
21772;DHT22;11047;47.904;8.110;2023-07-24T12:53:36;17.70;99.90
21772;DHT22;11047;47.904;8.110;2023-07-24T12:56:03;17.50;99.90
21772;DHT22;11047;47.904;8.110;2023-07-24T12:58:30;17.50;99.90
21772;DHT22;11047;47.904;8.110;2023-07-24T13:00:57;17.50;99.90
21772;DHT22;11047;47.904;8.110;2023-07-24T13:03:25;17.40;99.90
21772;DHT22;11047;47.904;8.110;2023-07-24T13:05:52;17.40;99.90
21772;DHT22;11047;47.904;8.110;2023-07-24T13:08:19;17.30;99.90
21772;DHT22;11047;47.904;8.110;2023-07-24T13:10:47;17.30;99.90
21772;DHT22;11047;47.904;8.110;2023-07-24T13:13:14;17.20;99.90
21772;DHT22;11047;47.904;8.110;2023-07-24T13:15:41;17.20;99.90
21772;DHT22;11047;47.904;8.110;2023-07-24T13:18:08;17.20;99.90
21772;DHT22;11047;47.904;8.110;2023-07-24T13:20:36;17.30;99.90
21772;DHT22;11047;47.904;8.110;2023-07-24T13:23:03;17.20;99.90
21772;DHT22;11047;47.904;8.110;2023-07-24T13:25:30;17.10;99.90
21772;DHT22;11047;47.904;8.110;2023-07-24T13:27:57;17.10;99.90
21772;DHT22;11047;47.904;8.110;2023-07-24T13:30:24;17.00;99.90
21772;DHT22;11047;47.904;8.110;2023-07-24T13:32:50;17.00;99.90
21772;DHT22;11047;47.904;8.110;2023-07-24T13:35:17;17.00;99.90
21772;DHT22;11047;47.904;8.110;2023-07-24T13:37:46;17.10;99.90
21772;DHT22;11047;47.904;8.110;2023-07-24T13:40:13;17.10;99.90
21772;DHT22;11047;47.904;8.110;2023-07-24T13:42:39;17.10;99.90
21772;DHT22;11047;47.904;8.110;2023-07-24T13:45:12;17.10;99.90
21772;DHT22;11047;47.904;8.110;2023-07-24T13:47:39;17.00;99.90
21772;DHT22;11047;47.904;8.110;2023-07-24T13:50:07;16.90;99.90
21772;DHT22;11047;47.904;8.110;2023-07-24T13:52:33;16.80;99.90
21772;DHT22;11047;47.904;8.110;2023-07-24T13:55:02;16.90;99.90
21772;DHT22;11047;47.904;8.110;2023-07-24T13:57:29;16.80;99.90
21772;DHT22;11047;47.904;8.110;2023-07-24T13:59:56;16.90;99.90
21772;DHT22;11047;47.904;8.110;2023-07-24T14:02:23;16.90;99.90
21772;DHT22;11047;47.904;8.110;2023-07-24T14:04:50;16.90;99.90
21772;DHT22;11047;47.904;8.110;2023-07-24T14:07:18;16.90;99.90
21772;DHT22;11047;47.904;8.110;2023-07-24T14:09:45;16.90;99.90
21772;DHT22;11047;47.904;8.110;2023-07-24T14:12:13;17.00;99.90
21772;DHT22;11047;47.904;8.110;2023-07-24T14:14:40;17.10;99.90
21772;DHT22;11047;47.904;8.110;2023-07-24T14:17:07;17.10;99.90
21772;DHT22;11047;47.904;8.110;2023-07-24T14:19:34;17.20;99.90
21772;DHT22;11047;47.904;8.110;2023-07-24T14:22:00;17.30;99.90
21772;DHT22;11047;47.904;8.110;2023-07-24T14:24:28;17.30;99.90
21772;DHT22;11047;47.904;8.110;2023-07-24T14:26:55;17.40;99.90
21772;DHT22;11047;47.904;8.110;2023-07-24T14:29:23;17.50;99.90
21772;DHT22;11047;47.904;8.110;2023-07-24T14:31:50;17.60;99.90
21772;DHT22;11047;47.904;8.110;2023-07-24T14:34:17;17.70;99.90
21772;DHT22;11047;47.904;8.110;2023-07-24T14:36:44;18.00;99.90
21772;DHT22;11047;47.904;8.110;2023-07-24T14:39:10;18.40;99.90
21772;DHT22;11047;47.904;8.110;2023-07-24T14:41:37;18.70;99.90
21772;DHT22;11047;47.904;8.110;2023-07-24T14:44:07;19.00;99.90
21772;DHT22;11047;47.904;8.110;2023-07-24T14:46:36;19.20;99.90
21772;DHT22;11047;47.904;8.110;2023-07-24T14:49:02;19.40;99.90
21772;DHT22;11047;47.904;8.110;2023-07-24T14:51:29;19.70;99.90
21772;DHT22;11047;47.904;8.110;2023-07-24T14:53:56;19.80;99.90
21772;DHT22;11047;47.904;8.110;2023-07-24T14:56:23;19.60;99.90
21772;DHT22;11047;47.904;8.110;2023-07-24T14:58:50;19.50;99.90
21772;DHT22;11047;47.904;8.110;2023-07-24T15:01:17;19.10;99.90
21772;DHT22;11047;47.904;8.110;2023-07-24T15:03:45;19.10;99.90
21772;DHT22;11047;47.904;8.110;2023-07-24T15:06:12;19.00;99.90
21772;DHT22;11047;47.904;8.110;2023-07-24T15:08:39;18.70;99.90
21772;DHT22;11047;47.904;8.110;2023-07-24T15:11:06;19.00;99.90
21772;DHT22;11047;47.904;8.110;2023-07-24T15:13:33;19.20;99.90
21772;DHT22;11047;47.904;8.110;2023-07-24T15:16:00;19.10;99.90
21772;DHT22;11047;47.904;8.110;2023-07-24T15:18:27;19.20;99.90
21772;DHT22;11047;47.904;8.110;2023-07-24T15:20:55;19.10;99.90
21772;DHT22;11047;47.904;8.110;2023-07-24T15:23:22;19.30;99.90
21772;DHT22;11047;47.904;8.110;2023-07-24T15:25:49;19.40;99.90
21772;DHT22;11047;47.904;8.110;2023-07-24T15:28:16;19.40;99.90
21772;DHT22;11047;47.904;8.110;2023-07-24T15:30:43;19.40;99.90
21772;DHT22;11047;47.904;8.110;2023-07-24T15:33:10;19.40;99.90
21772;DHT22;11047;47.904;8.110;2023-07-24T15:35:46;19.40;99.90
21772;DHT22;11047;47.904;8.110;2023-07-24T15:38:14;19.50;99.90
21772;DHT22;11047;47.904;8.110;2023-07-24T15:40:41;19.40;99.90
21772;DHT22;11047;47.904;8.110;2023-07-24T15:43:08;19.20;99.90